createdAt,value
2024-01-20T00:03:29.581Z,21.33
2024-01-20T00:08:31.858Z,17.83
2024-01-20T00:13:33.864Z,17.90
2024-01-20T00:18:36.924Z,18.40
2024-01-20T00:23:39.463Z,19.88
2024-01-20T00:28:42.679Z,17.25
2024-01-20T00:33:46.548Z,19.98
2024-01-20T00:38:48.676Z,21.20
2024-01-20T00:43:50.739Z,20.30
2024-01-20T00:48:52.788Z,24.58
2024-01-20T00:53:54.899Z,21.90
2024-01-20T00:58:57.702Z,23.85
2024-01-20T01:03:59.811Z,21.45
2024-01-20T01:09:01.707Z,21.35
2024-01-20T01:14:03.903Z,25.52
2024-01-20T01:24:08.064Z,25.93
2024-01-20T01:29:10.301Z,27.85
2024-01-20T01:34:12.317Z,24.15
2024-01-20T01:39:14.316Z,28.33
2024-01-20T01:44:16.337Z,24.23
2024-01-20T01:49:18.551Z,24.48
2024-01-20T01:54:22.043Z,24.50
2024-01-20T01:59:24.671Z,25.83
2024-01-20T02:04:27.025Z,23.13
2024-01-20T02:09:30.041Z,24.63
2024-01-20T02:14:32.295Z,22.33
2024-01-20T02:19:41.140Z,25.05
2024-01-20T02:24:52.289Z,24.38
2024-01-20T02:29:55.244Z,26.30
2024-01-20T02:40:00.253Z,27.75
2024-01-20T02:45:02.166Z,27.40
2024-01-20T02:50:04.613Z,24.83
2024-01-20T02:55:06.706Z,25.67
2024-01-20T03:05:12.465Z,23.88
2024-01-20T03:10:14.760Z,27.45
2024-01-20T03:20:19.073Z,25.33
2024-01-20T03:25:21.025Z,24.55
2024-01-20T03:30:23.108Z,23.40
2024-01-20T03:35:25.037Z,23.98
2024-01-20T03:40:28.481Z,23.45
2024-01-20T03:45:31.105Z,23.02
2024-01-20T03:50:33.061Z,27.40
2024-01-20T04:00:37.262Z,27.47
2024-01-20T04:10:42.602Z,26.48
2024-01-20T04:16:04.674Z,25.38
2024-01-20T04:21:06.228Z,25.88
2024-01-20T04:26:08.166Z,26.35
2024-01-20T04:31:10.204Z,31.95
2024-01-20T04:36:12.067Z,28.25
2024-01-20T04:41:14.186Z,26.50
2024-01-20T04:46:16.602Z,27.77
2024-01-20T04:51:18.689Z,25.48
2024-01-20T05:01:23.521Z,23.85
2024-01-20T05:06:26.151Z,28.00
2024-01-20T05:16:29.968Z,26.10
2024-01-20T05:21:32.011Z,29.60
2024-01-20T05:31:36.302Z,24.42
2024-01-20T05:36:38.265Z,28.50
2024-01-20T05:46:42.279Z,27.25
2024-01-20T05:51:44.362Z,26.35
2024-01-20T05:56:46.745Z,28.15
2024-01-20T06:01:51.538Z,30.10
2024-01-20T06:06:53.737Z,30.15
2024-01-20T06:11:55.560Z,27.70
2024-01-20T06:16:57.461Z,26.50
2024-01-20T06:21:59.417Z,27.42
2024-01-20T06:32:03.453Z,26.77
2024-01-20T06:37:06.212Z,25.13
2024-01-20T06:42:11.428Z,30.70
2024-01-20T06:47:13.428Z,31.08
2024-01-20T06:52:15.297Z,31.77
2024-01-20T06:57:17.200Z,28.17
2024-01-20T07:07:21.005Z,30.97
2024-01-20T07:12:22.858Z,33.10
2024-01-20T07:17:24.800Z,33.67
2024-01-20T07:22:26.707Z,26.40
2024-01-20T07:27:28.972Z,31.58
2024-01-20T07:32:31.456Z,30.05
2024-01-20T07:37:37.081Z,33.85
2024-01-20T07:42:41.302Z,28.23
2024-01-20T07:47:43.225Z,33.88
2024-01-20T07:52:46.115Z,43.85
2024-01-20T07:57:48.481Z,28.58
2024-01-20T08:02:50.536Z,35.85
2024-01-20T08:07:52.455Z,37.10
2024-01-20T08:12:54.316Z,34.55
2024-01-20T08:17:56.418Z,29.63
2024-01-20T08:22:58.372Z,37.78
2024-01-20T08:28:00.314Z,34.30
2024-01-20T08:33:04.435Z,31.52
2024-01-20T08:38:07.248Z,32.38
2024-01-20T08:48:11.568Z,29.60
2024-01-20T08:53:15.571Z,32.55
2024-01-20T08:58:17.415Z,31.30
2024-01-20T09:03:21.047Z,33.95
2024-01-20T09:08:23.092Z,42.22
2024-01-20T09:13:25.441Z,34.60
2024-01-20T09:23:29.561Z,36.33
2024-01-20T09:28:31.419Z,32.50
2024-01-20T09:33:33.764Z,37.15
2024-01-20T09:43:39.827Z,34.40
2024-01-20T09:48:44.519Z,36.97
2024-01-20T09:53:49.248Z,32.78
2024-01-20T09:58:52.689Z,35.47
2024-01-20T10:04:01.488Z,28.52
2024-01-20T10:09:04.316Z,29.65
2024-01-20T10:14:07.544Z,27.40
2024-01-20T10:19:09.518Z,23.17
2024-01-20T10:24:11.837Z,23.75
2024-01-20T10:29:14.291Z,20.52
2024-01-20T10:34:16.230Z,18.13
2024-01-20T10:39:21.136Z,20.55
2024-01-20T10:44:28.898Z,18.35
2024-01-20T10:49:30.865Z,18.52
2024-01-20T10:54:33.918Z,21.77
2024-01-20T10:59:40.959Z,19.67
2024-01-20T11:04:45.949Z,14.35
2024-01-20T11:09:58.424Z,19.40
2024-01-20T11:15:01.159Z,18.33
2024-01-20T11:20:08.433Z,16.10
2024-01-20T11:25:11.787Z,15.77
2024-01-20T11:30:15.717Z,17.88
2024-01-20T11:35:19.077Z,16.02
2024-01-20T11:40:21.057Z,13.40
2024-01-20T11:45:22.985Z,14.07
2024-01-20T11:50:24.834Z,12.50
2024-01-20T11:55:27.388Z,15.07
2024-01-20T12:05:31.566Z,11.80
2024-01-20T12:10:34.111Z,18.73
2024-01-20T12:20:38.900Z,10.48
2024-01-20T12:30:43.208Z,14.75
2024-01-20T12:35:45.926Z,22.42
2024-01-20T12:40:48.336Z,13.15
2024-01-20T12:45:50.282Z,15.50
2024-01-20T12:50:52.619Z,15.50
2024-01-20T12:55:54.496Z,13.93
2024-01-20T13:00:56.361Z,12.97
2024-01-20T13:05:58.337Z,17.05
2024-01-20T13:11:00.335Z,12.38
2024-01-20T13:16:02.243Z,22.60
2024-01-20T13:21:04.310Z,15.10
2024-01-20T13:26:06.606Z,15.95
2024-01-20T13:31:08.597Z,19.38
2024-01-20T13:36:10.538Z,15.57
2024-01-20T13:41:12.517Z,12.65
2024-01-20T13:46:14.744Z,10.95
2024-01-20T13:51:18.697Z,11.88
2024-01-20T13:56:22.196Z,10.02
2024-01-20T14:01:24.869Z,11.73
2024-01-20T14:11:28.914Z,12.55
2024-01-20T14:16:31.602Z,10.00
2024-01-20T14:21:34.203Z,10.85
2024-01-20T14:26:36.183Z,11.00
2024-01-20T14:31:49.010Z,10.32
2024-01-20T14:36:53.851Z,9.02
2024-01-20T14:41:55.722Z,10.85
2024-01-20T14:46:57.616Z,7.67
2024-01-20T14:51:59.437Z,11.87
2024-01-20T14:57:01.358Z,10.53
2024-01-20T15:02:05.352Z,7.68
2024-01-20T15:07:08.142Z,9.75
2024-01-20T15:12:10.041Z,7.63
2024-01-20T15:17:13.475Z,10.15
2024-01-20T15:22:15.601Z,12.23
2024-01-20T15:27:18.901Z,7.13
2024-01-20T15:32:20.876Z,9.40
2024-01-20T15:37:23.061Z,9.02
2024-01-20T15:42:24.924Z,6.33
2024-01-20T15:47:26.844Z,7.97
2024-01-20T15:52:29.084Z,6.05
2024-01-20T15:57:31.333Z,5.38
2024-01-20T16:02:33.796Z,8.05
2024-01-20T16:07:35.780Z,7.10
2024-01-20T16:12:37.820Z,12.07
2024-01-20T16:17:42.087Z,10.88
2024-01-20T16:22:44.373Z,9.25
2024-01-20T16:27:46.569Z,7.32
2024-01-20T16:32:48.623Z,7.60
2024-01-20T16:38:16.383Z,8.32
2024-01-20T16:43:18.830Z,6.30
2024-01-20T16:48:20.860Z,7.15
2024-01-20T16:53:23.098Z,5.50
2024-01-20T16:58:24.926Z,9.75
2024-01-20T17:03:26.829Z,8.57
2024-01-20T17:08:28.867Z,12.07
2024-01-20T17:13:31.020Z,9.80
2024-01-20T17:18:33.800Z,12.43
2024-01-20T17:23:36.006Z,9.60
2024-01-20T17:28:37.944Z,9.25
2024-01-20T17:33:40.058Z,9.00
2024-01-20T17:38:41.983Z,10.77
2024-01-20T17:43:45.441Z,8.57
2024-01-20T17:48:47.479Z,8.60
2024-01-20T17:53:49.320Z,9.55
2024-01-20T17:58:51.290Z,11.38
2024-01-20T18:03:53.377Z,11.43
2024-01-20T18:08:57.592Z,11.25
2024-01-20T18:13:59.778Z,10.15
2024-01-20T18:19:01.622Z,14.20
2024-01-20T18:24:05.322Z,12.45
2024-01-20T18:29:07.318Z,11.70
2024-01-20T18:34:09.392Z,14.02
2024-01-20T18:39:11.737Z,12.00
2024-01-20T18:44:15.719Z,12.95
2024-01-20T18:49:18.502Z,15.95
2024-01-20T18:54:20.366Z,15.82
2024-01-20T18:59:22.374Z,12.57
2024-01-20T19:04:24.442Z,13.63
2024-01-20T19:09:27.136Z,17.00
2024-01-20T19:14:29.151Z,16.50
2024-01-20T19:19:32.917Z,16.48
2024-01-20T19:24:35.817Z,16.38
2024-01-20T19:29:37.829Z,17.73
2024-01-20T19:34:40.160Z,15.10
2024-01-20T19:39:44.162Z,13.40
2024-01-20T19:44:48.336Z,13.57
2024-01-20T19:49:54.312Z,18.45
2024-01-20T19:54:56.303Z,13.30
2024-01-20T19:59:58.240Z,14.93
2024-01-20T20:05:00.744Z,16.50
2024-01-20T20:10:02.721Z,15.18
2024-01-20T20:15:05.626Z,13.75
2024-01-20T20:20:08.253Z,13.02
2024-01-20T20:25:10.493Z,17.67
2024-01-20T20:30:12.582Z,14.50
2024-01-20T20:35:15.615Z,12.80
2024-01-20T20:40:17.982Z,12.30
2024-01-20T20:45:20.361Z,12.65
2024-01-20T20:55:24.450Z,13.17
2024-01-20T21:00:26.245Z,13.82
2024-01-20T21:05:28.139Z,19.00
2024-01-20T21:10:30.006Z,14.60
2024-01-20T21:15:33.525Z,17.15
2024-01-20T21:20:36.594Z,15.48
2024-01-20T21:25:38.613Z,14.18
2024-01-20T21:30:40.506Z,12.55
2024-01-20T21:35:42.568Z,12.70
2024-01-20T21:40:47.514Z,13.10
2024-01-20T21:45:50.093Z,13.38
2024-01-20T21:50:52.029Z,14.13
2024-01-20T21:55:53.882Z,14.10
2024-01-20T22:00:56.000Z,14.23
2024-01-20T22:05:58.194Z,13.55
2024-01-20T22:11:00.021Z,12.80
2024-01-20T22:16:01.965Z,11.65
2024-01-20T22:21:04.995Z,10.70
2024-01-20T22:26:10.492Z,14.63
2024-01-20T22:31:12.512Z,11.30
2024-01-20T22:41:17.854Z,10.97
2024-01-20T22:46:19.726Z,14.20
2024-01-20T22:51:23.154Z,12.85
2024-01-20T22:56:25.286Z,12.75
2024-01-20T23:01:27.176Z,15.88
2024-01-20T23:06:29.190Z,19.83
2024-01-20T23:11:31.357Z,15.75
2024-01-20T23:21:35.246Z,12.40
2024-01-20T23:26:43.000Z,14.55
2024-01-20T23:31:45.582Z,13.95
2024-01-20T23:36:47.647Z,14.82
2024-01-20T23:41:49.800Z,12.95
2024-01-20T23:46:51.805Z,14.07
2024-01-20T23:51:54.578Z,14.85
2024-01-20T23:56:57.423Z,15.73
